CHICAGO O'HARE INTL

KORD (ORD)
Chicago, Illinois
Towered

Vatsim Metar:
KORD 190951Z 00000KT 10SM SCT075 21/18 A2996 RMK AO2 SLP139 T02060183 $

No ATC Online

Traffic

Inbound:
Ident
Type
Name
ETA
Phase
KAL037
H/B77W/L
Samuel Lee RKSI
14:01 Z
Cruse
DLH430
H/B748
Mario Peheim LOWG
16:52 Z
Climb

Outbound:
None

IAPs